Time;durP1;ratioP1;P1;durP2;ratioP2;P2;SDS_P1;SDS_P2;PMS_P1;PMS_P2;Temp;Humidity;BMP_temperature;BMP_pressure;BME280_temperature;BME280_humidity;BME280_pressure;Samples;Min_cycle;Max_cycle;Signal;HPM_P1;HPM_P2
2022/09/28 00:01:57;;;;;;;0.43;0.37;;;;;;;8.39;100.00;97409.13;4423200;32;20162;-78
2022/09/28 00:04:25;;;;;;;1.10;0.47;;;;;;;8.41;100.00;97401.94;4423446;32;20106;-79
2022/09/28 00:06:52;;;;;;;0.85;0.55;;;;;;;8.39;100.00;97408.28;4423020;32;20090;-79
2022/09/28 00:09:19;;;;;;;4.12;0.45;;;;;;;8.39;100.00;97397.84;4423149;32;20543;-79
2022/09/28 00:11:46;;;;;;;1.58;0.30;;;;;;;8.41;100.00;97401.94;4422999;32;20444;-79
2022/09/28 00:14:14;;;;;;;0.73;0.50;;;;;;;8.35;100.00;97390.31;4423153;32;20093;-80
2022/09/28 00:16:42;;;;;;;1.55;0.60;;;;;;;8.45;100.00;97386.81;4423131;32;20090;-79
2022/09/28 00:19:11;;;;;;;0.75;0.65;;;;;;;8.56;100.00;97383.91;4423200;32;20141;-80
2022/09/28 00:21:40;;;;;;;0.52;0.47;;;;;;;8.60;100.00;97390.47;4423017;32;20093;-80
2022/09/28 00:24:14;;;;;;;0.30;0.30;;;;;;;8.58;100.00;97397.62;4423052;32;20098;-80
2022/09/28 00:26:43;;;;;;;0.40;0.40;;;;;;;8.56;100.00;97393.56;4423331;32;20096;-81
2022/09/28 00:29:18;;;;;;;0.68;0.50;;;;;;;8.51;100.00;97400.06;4422899;32;20094;-81
2022/09/28 00:31:46;;;;;;;3.12;0.50;;;;;;;8.47;100.00;97385.69;4423005;32;20101;-81
2022/09/28 00:34:14;;;;;;;0.88;0.68;;;;;;;8.40;100.00;97392.47;4422984;32;20094;-81
2022/09/28 00:36:44;;;;;;;1.10;0.43;;;;;;;8.40;100.00;97396.88;4422971;32;20120;-82
2022/09/28 00:39:13;;;;;;;1.10;0.50;;;;;;;8.41;100.00;97403.75;4423152;32;20129;-82
2022/09/28 00:41:41;;;;;;;0.40;0.40;;;;;;;8.49;100.00;97398.56;4422634;32;20488;-82
2022/09/28 00:44:37;;;;;;;0.50;0.50;;;;;;;8.59;100.00;97399.25;4422937;32;20165;-82
2022/09/28 00:47:26;;;;;;;1.02;0.50;;;;;;;8.64;100.00;97407.41;4422952;32;20420;-82
2022/09/28 00:50:04;;;;;;;0.82;0.30;;;;;;;8.67;100.00;97399.28;4422945;32;20104;-82
2022/09/28 00:52:39;;;;;;;0.93;0.45;;;;;;;8.68;100.00;97385.25;4409021;32;20443;-82
2022/09/28 00:55:11;;;;;;;1.75;0.50;;;;;;;8.69;100.00;97397.34;4409081;32;20094;-82
2022/09/28 00:57:40;;;;;;;0.52;0.43;;;;;;;8.72;100.00;97398.00;4408930;32;20143;-82
2022/09/28 01:00:07;;;;;;;1.45;0.43;;;;;;;8.70;100.00;97406.81;4408929;32;20166;-82
2022/09/28 01:02:35;;;;;;;3.70;0.55;;;;;;;8.70;100.00;97398.16;4422659;32;20094;-82
2022/09/28 01:05:04;;;;;;;5.12;0.73;;;;;;;8.69;100.00;97399.12;4421998;32;20101;-82
2022/09/28 01:07:31;;;;;;;1.05;0.52;;;;;;;8.63;100.00;97405.81;4422612;32;20536;-82
2022/09/28 01:09:58;;;;;;;1.17;0.50;;;;;;;8.62;100.00;97405.97;4408711;32;20102;-82
2022/09/28 01:12:26;;;;;;;1.95;0.50;;;;;;;8.63;100.00;97405.81;4408907;32;20113;-82
2022/09/28 01:14:56;;;;;;;1.20;0.57;;;;;;;8.57;100.00;97398.62;4422962;32;20158;-81
2022/09/28 01:17:23;;;;;;;0.50;0.50;;;;;;;8.59;100.00;97407.09;4422514;32;20161;-81
2022/09/28 01:20:15;;;;;;;0.47;0.40;;;;;;;8.59;100.00;97411.50;4422930;32;20160;-81
2022/09/28 01:22:54;;;;;;;1.58;0.70;;;;;;;8.57;100.00;97421.25;4408544;32;20098;-81
2022/09/28 01:25:53;;;;;;;4.03;0.50;;;;;;;8.58;100.00;97415.88;4422756;32;20086;-81
2022/09/28 01:28:27;;;;;;;0.50;0.40;;;;;;;8.56;100.00;97411.81;4408829;32;20243;-81
2022/09/28 01:31:11;;;;;;;0.85;0.60;;;;;;;8.54;100.00;97427.63;4408533;32;20105;-80
2022/09/28 01:33:54;;;;;;;1.95;0.60;;;;;;;8.48;100.00;97408.19;4408691;32;20121;-81
2022/09/28 01:36:25;;;;;;;2.10;0.40;;;;;;;8.58;100.00;97413.28;4422266;32;20175;-80
2022/09/28 01:39:08;;;;;;;1.02;0.50;;;;;;;8.61;100.00;97420.78;4408834;32;20103;-80
2022/09/28 01:41:39;;;;;;;0.82;0.40;;;;;;;8.68;100.00;97427.03;4405391;32;20229;-80
2022/09/28 01:44:10;;;;;;;1.20;0.65;;;;;;;8.66;100.00;97415.94;4405722;32;20094;-80
2022/09/28 01:46:45;;;;;;;1.05;0.40;;;;;;;8.60;100.00;97432.22;4405872;32;20093;-80
2022/09/28 01:49:20;;;;;;;0.43;0.40;;;;;;;8.54;100.00;97427.63;4407200;32;20124;-80
2022/09/28 01:52:08;;;;;;;1.25;0.60;;;;;;;8.53;100.00;97426.00;4406818;32;20110;-80
2022/09/28 01:54:41;;;;;;;0.55;0.47;;;;;;;8.53;100.00;97429.41;4407120;32;20120;-80
2022/09/28 01:57:31;;;;;;;1.35;0.50;;;;;;;8.61;100.00;97430.44;4405886;32;20085;-80
2022/09/28 02:00:07;;;;;;;0.77;0.50;;;;;;;8.66;100.00;97430.75;4406800;32;20135;-79
2022/09/28 02:02:55;;;;;;;3.03;0.55;;;;;;;8.67;100.00;97430.59;4406631;32;20125;-79
2022/09/28 02:05:28;;;;;;;3.37;0.73;;;;;;;8.63;100.00;97438.91;4405941;32;20106;-79
2022/09/28 02:08:06;;;;;;;4.70;0.62;;;;;;;8.60;100.00;97431.38;4417620;32;20119;-79
2022/09/28 02:10:51;;;;;;;1.45;0.85;;;;;;;8.59;100.00;97429.78;4422182;32;20104;-79
2022/09/28 02:13:42;;;;;;;0.90;0.62;;;;;;;8.58;100.00;97428.94;4408150;32;20094;-79
2022/09/28 02:16:25;;;;;;;3.17;0.50;;;;;;;8.60;100.00;97437.44;4408761;32;20096;-79
2022/09/28 02:18:52;;;;;;;0.93;0.40;;;;;;;8.63;100.00;97423.25;4424132;32;20432;-80
2022/09/28 02:21:22;;;;;;;1.30;0.60;;;;;;;8.63;100.00;97420.62;4410189;32;20105;-79
2022/09/28 02:24:10;;;;;;;1.25;0.40;;;;;;;8.67;100.00;97421.97;4410064;32;20153;-79
2022/09/28 02:26:42;;;;;;;1.95;0.65;;;;;;;8.68;100.00;97423.59;4424255;32;20093;-78
2022/09/28 02:29:09;;;;;;;1.02;0.50;;;;;;;8.66;100.00;97417.72;4410117;32;20128;-78
2022/09/28 02:31:36;;;;;;;1.62;0.35;;;;;;;8.68;100.00;97424.41;4423965;32;20104;-78
2022/09/28 02:34:04;;;;;;;0.70;0.45;;;;;;;8.67;100.00;97420.16;4409872;32;20176;-79
2022/09/28 02:36:32;;;;;;;0.47;0.45;;;;;;;8.65;100.00;97424.72;4423986;32;20477;-79
2022/09/28 02:39:01;;;;;;;1.27;0.40;;;;;;;8.62;100.00;97424.25;4409957;32;20089;-79
2022/09/28 02:41:34;;;;;;;3.22;0.50;;;;;;;8.59;100.00;97424.56;4423449;32;20106;-79
2022/09/28 02:44:13;;;;;;;3.62;0.60;;;;;;;8.55;100.00;97431.87;4423667;32;20446;-79
2022/09/28 02:46:57;;;;;;;1.50;0.40;;;;;;;8.58;100.00;97430.75;4423982;32;20098;-78
2022/09/28 02:49:34;;;;;;;;;;;;;;;8.55;100.00;97431.06;4424293;32;20112;-79
2022/09/28 02:52:19;;;;;;;3.42;0.50;;;;;;;8.52;100.00;97440.84;4410228;32;20007;-78
2022/09/28 02:55:09;;;;;;;0.93;0.30;;;;;;;8.44;100.00;97453.03;4423707;32;20082;-79
2022/09/28 02:57:51;;;;;;;0.82;0.50;;;;;;;8.43;100.00;97451.38;4423749;32;20086;-79
2022/09/28 03:00:21;;;;;;;0.30;0.30;;;;;;;8.44;100.00;97451.25;4424036;32;20090;-78
2022/09/28 03:03:07;;;;;;;0.82;0.40;;;;;;;8.41;100.00;97459.34;4409875;32;20089;-79
2022/09/28 03:06:17;;;;;;;0.98;0.40;;;;;;;8.43;100.00;97467.03;4423927;32;20208;-78
2022/09/28 03:08:56;;;;;;;0.60;0.30;;;;;;;8.43;100.00;97472.25;4404313;32;20102;-78
2022/09/28 03:11:39;;;;;;;0.55;0.37;;;;;;;8.44;100.00;97479.13;4394766;32;20090;-79
2022/09/28 03:14:07;;;;;;;0.30;0.30;;;;;;;8.40;100.00;97475.97;4407149;32;20551;-79
2022/09/28 03:16:35;;;;;;;1.65;0.30;;;;;;;8.38;100.00;97479.72;4408574;32;20102;-79
2022/09/28 03:19:02;;;;;;;0.47;0.30;;;;;;;8.33;100.00;97488.81;4408384;32;20106;-79
2022/09/28 03:21:29;;;;;;;2.28;0.40;;;;;;;8.34;100.00;97484.41;4408267;32;20094;-79
2022/09/28 03:23:56;;;;;;;2.72;0.40;;;;;;;8.34;100.00;97485.25;4408326;32;20153;-79
2022/09/28 03:26:23;;;;;;;0.93;0.45;;;;;;;8.37;100.00;97488.53;4408193;32;20171;-78
2022/09/28 03:28:50;;;;;;;0.82;0.32;;;;;;;8.35;100.00;97481.66;4407472;32;20125;-78
2022/09/28 03:31:18;;;;;;;1.65;0.40;;;;;;;8.38;100.00;97484.94;4408458;32;20117;-78
2022/09/28 03:33:45;;;;;;;1.75;0.50;;;;;;;8.31;100.00;97489.94;4408392;32;20097;-78
2022/09/28 03:36:14;;;;;;;13.05;0.82;;;;;;;8.30;100.00;97489.12;4408324;32;20499;-79
2022/09/28 03:38:41;;;;;;;1.10;0.60;;;;;;;8.28;100.00;97485.87;4408172;32;20137;-79
2022/09/28 03:41:09;;;;;;;0.95;0.50;;;;;;;8.24;100.00;97497.59;4407931;32;20136;-78
2022/09/28 03:43:36;;;;;;;1.45;0.57;;;;;;;8.23;100.00;97495.13;4408182;32;20090;-78
2022/09/28 03:46:04;;;;;;;0.37;0.35;;;;;;;8.22;100.00;97494.31;4408330;32;20086;-78
2022/09/28 03:48:34;;;;;;;3.80;0.70;;;;;;;8.17;100.00;97492.19;4408164;32;20177;-79
2022/09/28 03:51:04;;;;;;;2.37;0.98;;;;;;;8.20;100.00;97493.63;4408023;32;20115;-79
2022/09/28 03:53:32;;;;;;;2.83;0.60;;;;;;;8.27;100.00;97488.63;4408399;32;20093;-79
2022/09/28 03:56:09;;;;;;;1.42;0.60;;;;;;;8.23;100.00;97485.50;4408159;32;20110;-79
2022/09/28 03:58:36;;;;;;;2.03;0.73;;;;;;;8.20;100.00;97488.41;4407121;32;20160;-79
2022/09/28 04:01:06;;;;;;;3.25;0.75;;;;;;;8.20;100.00;97477.19;4408387;32;20125;-80
2022/09/28 04:03:34;;;;;;;0.85;0.50;;;;;;;8.18;100.00;97483.34;4407541;32;20089;-79
2022/09/28 04:06:01;;;;;;;2.28;0.85;;;;;;;8.15;100.00;97481.06;4408015;32;20513;-81
2022/09/28 04:08:28;;;;;;;1.27;0.82;;;;;;;8.13;100.00;97474.34;4422499;32;20105;-81
2022/09/28 04:10:56;;;;;;;1.35;0.70;;;;;;;8.08;100.00;97476.59;4423193;32;20134;-81
2022/09/28 04:13:24;;;;;;;3.90;0.80;;;;;;;8.02;100.00;97464.19;4422968;32;20153;-81
2022/09/28 04:15:53;;;;;;;5.85;1.25;;;;;;;8.00;100.00;97462.53;4422882;32;20120;-81
2022/09/28 04:18:20;;;;;;;2.72;1.60;;;;;;;7.94;100.00;97470.97;4423204;32;20098;-81
2022/09/28 04:21:06;;;;;;;2.03;0.55;;;;;;;7.86;100.00;97470.94;4423213;32;20157;-81
2022/09/28 04:23:35;;;;;;;1.45;0.60;;;;;;;7.83;100.00;97460.81;4423281;32;20099;-82
2022/09/28 04:26:03;;;;;;;1.85;1.08;;;;;;;7.75;100.00;97450.28;4422541;32;20128;-82
2022/09/28 04:31:19;;;;;;;2.03;0.80;;;;;;;7.79;100.00;97454.25;4423124;32;20128;-81
2022/09/28 04:33:47;;;;;;;2.25;1.02;;;;;;;7.75;100.00;97456.34;4422308;32;20439;-81
2022/09/28 04:36:14;;;;;;;1.02;0.55;;;;;;;7.86;100.00;97459.66;4421427;32;20093;-81
2022/09/28 04:38:41;;;;;;;1.65;0.98;;;;;;;7.79;100.00;97456.84;4421566;32;20615;-81
2022/09/28 04:41:21;;;;;;;1.10;0.60;;;;;;;7.75;100.00;97458.97;4413899;32;20124;-81
2022/09/28 04:43:49;;;;;;;2.62;0.75;;;;;;;7.84;100.00;97465.03;4407513;32;20139;-81
2022/09/28 04:46:17;;;;;;;2.87;0.95;;;;;;;7.83;100.00;97466.03;4407082;32;20159;-81
2022/09/28 04:48:45;;;;;;;2.20;1.20;;;;;;;7.85;100.00;97463.25;4407143;32;20150;-81
2022/09/28 04:51:12;;;;;;;2.42;0.98;;;;;;;7.86;100.00;97463.09;4407733;32;20477;-81
2022/09/28 04:53:40;;;;;;;1.55;0.90;;;;;;;7.87;100.00;97461.31;4407693;32;20478;-81
2022/09/28 04:56:10;;;;;;;2.72;0.70;;;;;;;7.88;100.00;97462.94;4407652;32;20177;-81
2022/09/28 04:58:38;;;;;;;2.97;0.98;;;;;;;7.85;100.00;97463.25;4408046;32;20365;-81
2022/09/28 05:01:08;;;;;;;3.12;0.55;;;;;;;7.84;100.00;97465.03;4418040;32;20101;-82
2022/09/28 05:03:47;;;;;;;2.00;0.85;;;;;;;7.83;100.00;97471.22;4415505;32;20085;-81
2022/09/28 05:06:14;;;;;;;0.60;0.57;;;;;;;7.82;100.00;97470.37;4417772;32;20617;-81
2022/09/28 05:08:42;;;;;;;2.03;0.70;;;;;;;7.81;100.00;97475.75;4418419;32;20109;-81
2022/09/28 05:11:10;;;;;;;0.90;0.50;;;;;;;7.73;100.00;97470.50;4421810;32;20444;-81
2022/09/28 05:13:43;;;;;;;3.60;0.70;;;;;;;7.74;100.00;97472.16;4421886;32;20189;-82
2022/09/28 05:16:14;;;;;;;1.37;0.50;;;;;;;7.75;100.00;97485.03;4417729;32;20156;-82
2022/09/28 05:18:42;;;;;;;0.52;0.30;;;;;;;7.75;100.00;97479.81;4420299;32;20104;-81
2022/09/28 05:21:11;;;;;;;1.77;1.10;;;;;;;7.75;100.00;97484.19;4423461;32;20568;-81
2022/09/28 05:23:39;;;;;;;1.35;0.47;;;;;;;7.76;100.00;97481.44;4424202;32;20090;-81
2022/09/28 05:26:07;;;;;;;0.77;0.50;;;;;;;7.81;100.00;97483.56;4416848;32;20127;-81
2022/09/28 05:28:34;;;;;;;0.95;0.40;;;;;;;7.87;100.00;97485.56;4424295;32;20123;-80
2022/09/28 05:31:07;;;;;;;1.83;0.30;;;;;;;8.02;100.00;97483.25;4418717;32;20158;-78
2022/09/28 05:33:35;;;;;;;0.52;0.30;;;;;;;8.22;100.00;97486.50;4411450;32;20231;-80
2022/09/28 05:36:03;;;;;;;0.70;0.50;;;;;;;8.43;100.00;97478.28;4418262;32;20478;-80
2022/09/28 05:38:30;;;;;;;1.58;0.40;;;;;;;8.58;100.00;97478.53;4418951;32;20171;-80
2022/09/28 05:40:57;;;;;;;0.35;0.35;;;;;;;8.75;100.00;97481.22;4412543;32;20115;-79
2022/09/28 05:43:31;;;;;;;0.37;0.30;;;;;;;8.90;100.00;97487.47;4414955;32;20128;-79
2022/09/28 05:45:59;;;;;;;0.62;0.28;;;;;;;9.04;100.00;97486.88;4420686;32;20509;-81
2022/09/28 05:48:27;;;;;;;1.45;0.52;;;;;;;9.16;100.00;97483.94;4418922;32;20105;-82
2022/09/28 05:50:54;;;;;;;4.40;0.40;;;;;;;9.28;100.00;97482.69;4414893;32;20124;-81
2022/09/28 05:53:21;;;;;;;0.82;0.20;;;;;;;9.31;100.00;97485.00;4419715;32;20112;-83
2022/09/28 05:55:49;;;;;;;1.00;0.30;;;;;;;9.41;100.00;97490.06;4423096;32;20436;-82
2022/09/28 05:58:16;;;;;;;0.35;0.32;;;;;;;9.55;100.00;97488.59;4421815;32;20258;-81
2022/09/28 06:00:43;;;;;;;0.47;0.30;;;;;;;9.55;100.00;97486.81;4423043;32;20124;-80
2022/09/28 06:03:13;;;;;;;0.55;0.30;;;;;;;9.56;100.00;97493.66;4421697;32;20106;-81
2022/09/28 06:05:40;;;;;;;2.10;0.88;;;;;;;9.69;100.00;97493.19;4425734;32;20121;-79
2022/09/28 06:08:09;;;;;;;5.43;1.20;;;;;;;9.73;100.00;97491.88;4421867;32;20247;-77
2022/09/28 06:10:37;;;;;;;4.05;1.00;;;;;;;9.70;100.00;97492.19;4422040;32;20101;-78
2022/09/28 06:13:05;;;;;;;2.65;1.10;;;;;;;9.69;100.00;97490.59;4422482;32;20109;-77
2022/09/28 06:15:34;;;;;;;2.28;1.05;;;;;;;9.67;100.00;97483.88;4413923;32;20161;-78
2022/09/28 06:18:08;;;;;;;1.95;0.80;;;;;;;9.58;100.00;97483.88;4420360;32;20093;-77
2022/09/28 06:20:40;;;;;;;1.30;0.60;;;;;;;9.68;100.00;97488.94;4424246;32;20116;-77
2022/09/28 06:23:12;;;;;;;2.35;0.62;;;;;;;9.72;100.00;97484.19;4422194;32;20089;-77
2022/09/28 06:25:39;;;;;;;3.55;0.52;;;;;;;9.78;100.00;97496.62;4430799;32;20090;-77
2022/09/28 06:28:09;;;;;;;1.90;0.60;;;;;;;9.90;100.00;97497.09;4425175;32;20109;-78
2022/09/28 06:30:38;;;;;;;3.03;0.62;;;;;;;9.94;100.00;97504.47;4422883;32;20102;-77
2022/09/28 06:33:09;;;;;;;2.10;0.80;;;;;;;9.99;100.00;97503.16;4422674;32;20101;-78
2022/09/28 06:35:36;;;;;;;5.37;0.60;;;;;;;10.04;98.08;97499.06;4423624;32;20498;-78
2022/09/28 06:38:03;;;;;;;0.43;0.43;;;;;;;10.06;99.62;97509.37;4429078;32;20119;-76
2022/09/28 06:40:32;;;;;;;0.75;0.37;;;;;;;10.11;97.54;97497.44;4429773;32;20117;-77
2022/09/28 06:43:09;;;;;;;0.73;0.47;;;;;;;10.18;97.43;97497.56;4420429;32;20089;-79
2022/09/28 06:45:41;;;;;;;0.50;0.40;;;;;;;10.18;97.82;97500.19;4431330;32;20125;-78
2022/09/28 06:48:09;;;;;;;1.35;0.40;;;;;;;10.24;97.92;97503.97;4422535;32;20139;-79
2022/09/28 06:50:39;;;;;;;1.17;0.40;;;;;;;10.39;97.77;97498.88;4406848;32;20097;-75
2022/09/28 06:53:10;;;;;;;2.08;0.50;;;;;;;10.52;97.50;97506.22;4427795;32;20098;-77
2022/09/28 06:55:44;;;;;;;0.82;0.68;;;;;;;10.67;95.64;97503.72;4423394;32;20091;-76
2022/09/28 06:58:18;;;;;;;0.82;0.50;;;;;;;10.74;95.17;97508.09;4420151;32;20119;-75
2022/09/28 07:00:47;;;;;;;1.02;0.60;;;;;;;10.85;93.65;97506.09;4432838;32;20097;-75
2022/09/28 07:03:20;;;;;;;1.35;0.40;;;;;;;10.90;93.97;97509.03;4407197;32;20232;-74
2022/09/28 07:05:50;;;;;;;1.05;0.70;;;;;;;11.01;93.17;97508.66;4423308;32;20143;-77
2022/09/28 07:08:18;;;;;;;0.60;0.60;;;;;;;11.06;92.32;97510.75;4420612;32;20134;-75
2022/09/28 07:10:48;;;;;;;0.57;0.40;;;;;;;11.25;92.19;97514.75;4418510;32;20146;-75
2022/09/28 07:13:16;;;;;;;0.40;0.40;;;;;;;11.45;92.08;97513.31;4416616;32;20109;-75
2022/09/28 07:16:03;;;;;;;1.00;0.50;;;;;;;11.65;92.02;97510.25;4423052;32;20136;-75
2022/09/28 07:18:30;;;;;;;1.95;0.40;;;;;;;11.85;90.65;97506.16;4422175;32;20466;-75
2022/09/28 07:20:58;;;;;;;1.27;0.60;;;;;;;11.95;90.09;97498.06;4420648;32;20143;-75
2022/09/28 07:23:27;;;;;;;1.35;0.60;;;;;;;11.93;91.40;97499.22;4421855;32;20098;-75
2022/09/28 07:25:57;;;;;;;1.10;0.70;;;;;;;11.97;92.10;97511.03;4426354;32;20400;-74
2022/09/28 07:28:25;;;;;;;1.85;0.85;;;;;;;12.14;92.40;97515.16;4421358;32;20090;-74
2022/09/28 07:30:56;;;;;;;1.40;0.80;;;;;;;12.28;91.66;97499.56;4420815;32;20109;-75
2022/09/28 07:33:31;;;;;;;0.95;0.60;;;;;;;12.30;89.68;97495.78;4422760;32;20089;-75
2022/09/28 07:36:05;;;;;;;1.05;0.85;;;;;;;12.57;88.88;97501.41;4433403;32;20536;-75
2022/09/28 07:38:33;;;;;;;1.23;0.80;;;;;;;12.62;87.82;97498.25;4418634;32;20549;-76
2022/09/28 07:41:13;;;;;;;1.98;0.93;;;;;;;12.64;89.72;97497.06;4421103;32;20123;-74
2022/09/28 07:43:41;;;;;;;1.25;0.70;;;;;;;12.80;91.96;97501.31;4421917;32;20101;-74
2022/09/28 07:46:10;;;;;;;3.87;1.00;;;;;;;13.00;88.71;97509.44;4437198;32;20102;-78
2022/09/28 07:48:40;;;;;;;2.50;0.80;;;;;;;13.00;87.86;97514.69;4437140;32;20094;-76
2022/09/28 07:51:08;;;;;;;1.40;0.85;;;;;;;13.01;89.29;97518.16;4419550;32;20097;-77
2022/09/28 07:53:37;;;;;;;3.25;0.80;;;;;;;13.12;89.06;97515.84;4421494;32;20188;-75
2022/09/28 07:56:08;;;;;;;1.42;0.70;;;;;;;13.13;88.19;97521.94;4421412;32;20185;-76
2022/09/28 07:58:37;;;;;;;1.12;0.80;;;;;;;13.12;91.39;97515.84;4422920;32;20136;-77
2022/09/28 08:01:07;;;;;;;1.40;0.90;;;;;;;13.25;92.88;97517.03;4421731;32;20136;-76
2022/09/28 08:03:35;;;;;;;1.58;0.77;;;;;;;13.21;86.66;97519.19;4422732;32;20117;-78
2022/09/28 08:06:06;;;;;;;2.17;1.17;;;;;;;13.27;89.18;97522.91;4422579;32;20148;-77
2022/09/28 08:08:34;;;;;;;1.20;0.82;;;;;;;13.33;88.94;97511.66;4423133;32;20094;-77
2022/09/28 08:11:02;;;;;;;1.40;0.85;;;;;;;13.35;88.28;97508.87;4422798;32;20474;-77
2022/09/28 08:13:29;;;;;;;1.87;0.75;;;;;;;13.30;88.59;97504.94;4421509;32;20081;-78
2022/09/28 08:16:00;;;;;;;1.77;0.90;;;;;;;13.32;87.13;97488.97;4422774;32;20179;-76
2022/09/28 08:18:29;;;;;;;1.15;0.77;;;;;;;13.31;87.94;97480.28;4421325;32;20160;-79
2022/09/28 08:23:43;;;;;;;1.33;0.85;;;;;;;13.53;88.77;97468.97;4430782;32;20466;-81
2022/09/28 08:26:10;;;;;;;0.65;0.57;;;;;;;13.57;87.08;97481.56;4423120;32;20107;-79
2022/09/28 08:28:43;;;;;;;1.60;1.20;;;;;;;13.59;89.14;97478.75;4424994;32;20227;-78
2022/09/28 08:31:17;;;;;;;4.07;0.98;;;;;;;13.72;90.34;97478.87;4426874;32;20608;-77
2022/09/28 08:33:48;;;;;;;0.80;0.77;;;;;;;13.79;90.56;97492.09;4417886;32;20116;-79
2022/09/28 08:36:24;;;;;;;1.27;1.00;;;;;;;13.90;90.52;97501.28;4423500;32;20183;-78
2022/09/28 08:38:52;;;;;;;2.67;0.90;;;;;;;13.93;88.46;97507.00;4420783;32;20109;-78
2022/09/28 08:42:04;;;;;;;2.25;1.00;;;;;;;14.14;89.02;97500.06;4422494;32;20085;-78
2022/09/28 08:44:39;;;;;;;1.45;0.90;;;;;;;14.17;87.80;97497.03;4395858;32;21289;-78
2022/09/28 08:50:13;;;;;;;1.90;0.73;;;;;;;14.11;88.61;97514.44;4386202;32;20185;-78
2022/09/28 08:52:42;;;;;;;1.02;0.80;;;;;;;14.08;86.92;97506.94;4375357;32;20180;-78
2022/09/28 08:55:36;;;;;;;1.60;1.08;;;;;;;14.08;86.91;97499.03;4397026;32;20602;-78
2022/09/28 08:58:11;;;;;;;2.90;0.93;;;;;;;14.59;87.17;97495.28;4378196;32;20107;-78
2022/09/28 09:00:47;;;;;;;0.93;0.68;;;;;;;15.12;87.39;97501.87;4381103;32;20106;-78
2022/09/28 09:03:19;;;;;;;1.83;0.80;;;;;;;15.44;84.81;97487.97;4387362;32;20159;-78
2022/09/28 09:05:59;;;;;;;1.58;0.85;;;;;;;15.49;82.62;97489.16;4387631;32;20118;-77
2022/09/28 09:08:51;;;;;;;1.12;0.95;;;;;;;15.56;83.09;97487.38;4397428;32;20113;-78
2022/09/28 09:11:47;;;;;;;2.28;1.12;;;;;;;15.70;87.71;97498.75;4391578;32;20128;-78
2022/09/28 09:14:56;;;;;;;1.20;0.90;;;;;;;15.59;84.72;97484.31;4385753;32;20121;-78
2022/09/28 09:17:45;;;;;;;3.05;1.05;;;;;;;15.38;81.91;97483.50;4363194;32;20122;-76
2022/09/28 09:20:14;;;;;;;1.98;1.17;;;;;;;15.42;81.80;97481.25;4381707;32;20107;-76
2022/09/28 09:22:57;;;;;;;2.40;1.33;;;;;;;15.57;84.29;97481.09;4422899;32;20089;-76
2022/09/28 09:25:49;;;;;;;1.85;1.20;;;;;;;15.82;81.96;97478.72;4421646;32;20573;-76
2022/09/28 09:28:41;;;;;;;4.00;1.23;;;;;;;16.08;79.03;97474.44;4416626;32;20503;-76
2022/09/28 09:31:18;;;;;;;1.98;1.45;;;;;;;16.15;80.05;97483.16;4419770;32;20109;-76
2022/09/28 09:33:57;;;;;;;2.90;1.55;;;;;;;15.93;81.13;97488.66;4420970;32;20133;-75
2022/09/28 09:37:03;;;;;;;1.62;1.27;;;;;;;15.54;82.83;97481.47;4420467;32;20097;-76
2022/09/28 09:39:54;;;;;;;2.15;1.30;;;;;;;15.72;82.90;97479.06;4411998;32;20189;-77
2022/09/28 09:42:51;;;;;;;3.95;1.20;;;;;;;15.88;81.70;97472.63;4417537;32;20177;-77
2022/09/28 09:45:30;;;;;;;1.67;0.70;;;;;;;16.44;83.47;97476.63;4422392;32;20098;-76
2022/09/28 09:48:02;;;;;;;2.67;1.02;;;;;;;16.59;81.85;97478.22;4407492;32;20153;-77
2022/09/28 09:50:38;;;;;;;1.20;0.80;;;;;;;16.40;77.65;97479.91;4421676;32;20119;-76
2022/09/28 09:53:24;;;;;;;1.17;0.68;;;;;;;16.30;77.11;97480.28;4424038;32;20485;-76
2022/09/28 09:55:56;;;;;;;2.80;0.93;;;;;;;16.26;78.35;97479.91;4432031;32;20132;-77
2022/09/28 09:58:34;;;;;;;1.50;1.00;;;;;;;16.37;78.76;97481.09;4421251;32;20176;-78
2022/09/28 10:01:07;;;;;;;1.23;0.90;;;;;;;16.02;77.66;97478.72;4433010;32;20109;-77
2022/09/28 10:03:39;;;;;;;1.50;0.80;;;;;;;15.86;79.59;97484.38;4421427;32;20483;-80
2022/09/28 10:06:13;;;;;;;2.95;0.90;;;;;;;15.74;82.58;97486.78;4417872;32;20152;-79
2022/09/28 10:08:43;;;;;;;0.88;0.50;;;;;;;15.71;81.93;97485.34;4420351;32;20085;-78
2022/09/28 10:11:14;;;;;;;0.90;0.60;;;;;;;15.79;82.24;97493.13;4416887;32;20113;-78
2022/09/28 10:13:43;;;;;;;0.88;0.82;;;;;;;15.93;80.84;97479.94;4409133;32;20466;-76
2022/09/28 10:16:17;;;;;;;2.15;0.70;;;;;;;15.98;80.15;97482.75;4431190;32;20150;-76
2022/09/28 10:18:45;;;;;;;3.40;1.20;;;;;;;16.11;80.09;97490.69;4423505;32;20106;-79
2022/09/28 10:21:16;;;;;;;0.73;0.62;;;;;;;16.42;80.16;97493.72;4413030;32;20492;-78
2022/09/28 10:23:49;;;;;;;1.73;1.08;;;;;;;16.77;77.75;97496.88;4412939;32;20147;-76
2022/09/28 10:26:24;;;;;;;1.42;0.80;;;;;;;16.77;77.15;97496.88;4411149;32;20105;-78
2022/09/28 10:29:00;;;;;;;1.33;0.80;;;;;;;16.79;77.59;97494.84;4410241;32;20124;-78
2022/09/28 10:31:35;;;;;;;1.75;1.05;;;;;;;17.03;74.95;97493.37;4418795;32;20098;-77
2022/09/28 10:34:04;;;;;;;1.23;0.68;;;;;;;17.06;78.08;97492.09;4420947;32;20101;-79
2022/09/28 10:36:37;;;;;;;1.23;0.90;;;;;;;16.99;76.30;97492.16;4422309;32;20109;-76
2022/09/28 10:39:05;;;;;;;3.08;0.90;;;;;;;16.63;79.53;97490.00;4412944;32;20192;-75
2022/09/28 10:41:32;;;;;;;0.95;0.70;;;;;;;16.55;79.00;97484.91;4409918;32;20089;-74
2022/09/28 10:44:09;;;;;;;1.60;0.93;;;;;;;16.68;82.39;97484.88;4423485;32;20156;-75
2022/09/28 10:46:37;;;;;;;1.15;0.77;;;;;;;16.84;82.30;97483.63;4412255;32;20155;-73
2022/09/28 10:49:14;;;;;;;0.93;0.73;;;;;;;16.80;75.55;97485.87;4409062;32;20094;-74
2022/09/28 10:51:45;;;;;;;0.80;0.70;;;;;;;16.71;73.34;97486.31;4407920;32;20123;-72
2022/09/28 10:54:16;;;;;;;1.58;0.75;;;;;;;16.66;74.27;97485.09;4420789;32;20105;-73
2022/09/28 10:56:44;;;;;;;1.77;0.75;;;;;;;16.68;78.28;97472.50;4421710;32;20098;-74
2022/09/28 10:59:23;;;;;;;1.70;0.82;;;;;;;16.80;74.32;97477.13;4421746;32;20151;-73
2022/09/28 11:01:53;;;;;;;1.62;0.80;;;;;;;16.58;73.50;97473.94;4420007;32;20107;-74
2022/09/28 11:04:23;;;;;;;1.60;0.80;;;;;;;16.86;77.05;97471.00;4412311;32;20109;-74
2022/09/28 11:06:50;;;;;;;3.25;0.95;;;;;;;17.29;76.76;97466.97;4425181;32;20137;-73
2022/09/28 11:09:30;;;;;;;1.98;1.00;;;;;;;17.59;74.05;97461.09;4424686;32;20113;-72
2022/09/28 11:11:59;;;;;;;2.03;1.08;;;;;;;17.63;71.69;97467.59;4421195;32;20097;-74
2022/09/28 11:14:36;;;;;;;1.48;0.82;;;;;;;17.81;68.91;97448.31;4421497;32;20551;-74
2022/09/28 11:17:39;;;;;;;2.45;0.90;;;;;;;17.91;72.54;97452.12;4408779;32;20124;-74
2022/09/28 11:20:24;;;;;;;1.00;0.85;;;;;;;17.51;72.06;97448.91;4414664;32;20455;-72
2022/09/28 11:22:57;;;;;;;0.98;0.80;;;;;;;17.49;71.16;97453.63;4421760;32;20116;-74
2022/09/28 11:25:27;;;;;;;1.52;0.82;;;;;;;17.70;71.13;97433.91;4408936;32;20113;-73
2022/09/28 11:27:59;;;;;;;1.25;0.77;;;;;;;17.36;72.52;97431.47;4424893;32;20097;-74
2022/09/28 11:30:33;;;;;;;3.20;0.85;;;;;;;17.85;73.60;97438.88;4423311;32;20544;-74
2022/09/28 11:33:06;;;;;;;1.23;0.70;;;;;;;17.93;69.52;97437.84;4407026;32;20455;-75
2022/09/28 11:35:59;;;;;;;0.93;0.62;;;;;;;18.14;70.98;97445.38;4411097;32;20105;-75
2022/09/28 11:38:39;;;;;;;2.62;0.93;;;;;;;18.14;70.69;97445.38;4426968;32;20123;-77
2022/09/28 11:41:35;;;;;;;2.47;1.05;;;;;;;17.95;71.25;97433.94;4419523;32;20098;-77
2022/09/28 11:44:16;;;;;;;0.85;0.73;;;;;;;17.37;70.16;97441.06;4425318;32;20105;-76
2022/09/28 11:47:02;;;;;;;1.98;0.60;;;;;;;17.85;74.15;97436.22;4423997;32;20101;-77
2022/09/28 11:49:40;;;;;;;0.50;0.50;;;;;;;18.08;69.29;97444.41;4419232;32;20085;-76
2022/09/28 11:52:46;;;;;;;1.65;0.60;;;;;;;18.02;69.01;97433.88;4413088;32;20085;-78
2022/09/28 11:55:18;;;;;;;0.95;0.70;;;;;;;18.24;67.43;97426.31;4404155;32;20109;-77
2022/09/28 11:57:49;;;;;;;1.25;0.98;;;;;;;18.12;70.03;97428.88;4405502;32;20086;-77
2022/09/28 12:00:21;;;;;;;1.05;0.75;;;;;;;18.08;71.67;97417.13;4404326;32;20120;-78
2022/09/28 12:03:04;;;;;;;1.50;1.08;;;;;;;18.00;70.68;97420.03;4419127;32;20158;-78
2022/09/28 12:06:04;;;;;;;1.77;0.73;;;;;;;17.94;70.08;97415.59;4419954;32;20077;-77
2022/09/28 12:08:36;;;;;;;0.85;0.80;;;;;;;17.71;70.12;97411.69;4417483;32;20116;-77
2022/09/28 12:11:20;;;;;;;1.70;0.80;;;;;;;17.69;69.94;97403.16;4415101;32;20143;-77
2022/09/28 12:13:53;;;;;;;2.12;0.82;;;;;;;17.89;67.71;97411.75;4420112;32;20140;-77